sensor_id;sensor_type;location;lat;lon;timestamp;temperature;humidity
11944;DHT22;6031;50.220;10.122;2023-07-28T00:01:55;16.70;99.90
11944;DHT22;6031;50.220;10.122;2023-07-28T00:04:20;16.70;99.90
11944;DHT22;6031;50.220;10.122;2023-07-28T00:06:46;16.60;99.90
11944;DHT22;6031;50.220;10.122;2023-07-28T00:09:11;16.60;99.90
11944;DHT22;6031;50.220;10.122;2023-07-28T00:11:37;16.60;99.90
11944;DHT22;6031;50.220;10.122;2023-07-28T00:14:02;16.60;99.90
11944;DHT22;6031;50.220;10.122;2023-07-28T00:16:28;16.60;99.90
11944;DHT22;6031;50.220;10.122;2023-07-28T00:18:53;16.60;99.90
11944;DHT22;6031;50.220;10.122;2023-07-28T00:21:19;16.60;99.90
11944;DHT22;6031;50.220;10.122;2023-07-28T00:23:44;16.60;99.90
11944;DHT22;6031;50.220;10.122;2023-07-28T00:26:10;16.60;99.90
11944;DHT22;6031;50.220;10.122;2023-07-28T00:28:35;16.60;99.90
11944;DHT22;6031;50.220;10.122;2023-07-28T00:31:01;16.60;99.90
11944;DHT22;6031;50.220;10.122;2023-07-28T00:33:26;16.60;99.90
11944;DHT22;6031;50.220;10.122;2023-07-28T00:35:52;16.60;99.90
11944;DHT22;6031;50.220;10.122;2023-07-28T00:38:17;16.60;99.90
11944;DHT22;6031;50.220;10.122;2023-07-28T00:40:43;16.60;99.90
11944;DHT22;6031;50.220;10.122;2023-07-28T00:43:08;16.60;99.90
11944;DHT22;6031;50.220;10.122;2023-07-28T00:45:35;16.60;99.90
11944;DHT22;6031;50.220;10.122;2023-07-28T00:48:01;16.70;99.90
11944;DHT22;6031;50.220;10.122;2023-07-28T00:50:27;16.60;99.90
11944;DHT22;6031;50.220;10.122;2023-07-28T00:52:53;16.70;99.90
11944;DHT22;6031;50.220;10.122;2023-07-28T00:55:20;16.70;99.90
11944;DHT22;6031;50.220;10.122;2023-07-28T00:57:47;16.60;99.90
11944;DHT22;6031;50.220;10.122;2023-07-28T01:00:13;16.60;99.90
11944;DHT22;6031;50.220;10.122;2023-07-28T01:02:38;16.60;99.90
11944;DHT22;6031;50.220;10.122;2023-07-28T01:05:04;16.60;99.90
11944;DHT22;6031;50.220;10.122;2023-07-28T01:07:33;16.60;99.90
11944;DHT22;6031;50.220;10.122;2023-07-28T01:12:28;16.60;99.90
11944;DHT22;6031;50.220;10.122;2023-07-28T01:14:54;16.60;99.90
11944;DHT22;6031;50.220;10.122;2023-07-28T01:17:19;16.60;99.90
11944;DHT22;6031;50.220;10.122;2023-07-28T01:19:45;16.60;99.90
11944;DHT22;6031;50.220;10.122;2023-07-28T01:25:43;16.60;99.90
11944;DHT22;6031;50.220;10.122;2023-07-28T01:28:12;16.50;99.90
11944;DHT22;6031;50.220;10.122;2023-07-28T01:30:38;16.50;99.90
11944;DHT22;6031;50.220;10.122;2023-07-28T01:33:08;16.50;99.90
11944;DHT22;6031;50.220;10.122;2023-07-28T01:35:35;16.50;99.90
11944;DHT22;6031;50.220;10.122;2023-07-28T01:38:01;16.50;99.90
11944;DHT22;6031;50.220;10.122;2023-07-28T01:40:26;16.50;99.90
11944;DHT22;6031;50.220;10.122;2023-07-28T01:42:52;16.40;99.90
11944;DHT22;6031;50.220;10.122;2023-07-28T01:45:17;16.40;99.90
11944;DHT22;6031;50.220;10.122;2023-07-28T01:47:43;16.40;99.90
11944;DHT22;6031;50.220;10.122;2023-07-28T01:50:08;16.40;99.90
11944;DHT22;6031;50.220;10.122;2023-07-28T01:52:34;16.30;99.90
11944;DHT22;6031;50.220;10.122;2023-07-28T01:54:59;16.40;99.90
11944;DHT22;6031;50.220;10.122;2023-07-28T01:57:26;16.30;99.90
11944;DHT22;6031;50.220;10.122;2023-07-28T01:59:53;16.40;99.90
11944;DHT22;6031;50.220;10.122;2023-07-28T02:02:19;16.40;99.90
11944;DHT22;6031;50.220;10.122;2023-07-28T02:04:44;16.30;99.90
11944;DHT22;6031;50.220;10.122;2023-07-28T02:07:10;16.30;99.90
11944;DHT22;6031;50.220;10.122;2023-07-28T02:09:35;16.40;99.90
11944;DHT22;6031;50.220;10.122;2023-07-28T02:12:01;16.40;99.90
11944;DHT22;6031;50.220;10.122;2023-07-28T02:14:26;16.30;99.90
11944;DHT22;6031;50.220;10.122;2023-07-28T02:16:52;16.30;99.90
11944;DHT22;6031;50.220;10.122;2023-07-28T02:19:17;16.30;99.90
11944;DHT22;6031;50.220;10.122;2023-07-28T02:21:43;16.30;99.90
11944;DHT22;6031;50.220;10.122;2023-07-28T02:24:08;16.30;99.90
11944;DHT22;6031;50.220;10.122;2023-07-28T02:26:34;16.30;99.90
11944;DHT22;6031;50.220;10.122;2023-07-28T02:28:59;16.30;99.90
11944;DHT22;6031;50.220;10.122;2023-07-28T02:31:25;16.30;99.90
11944;DHT22;6031;50.220;10.122;2023-07-28T02:33:50;16.30;99.90
11944;DHT22;6031;50.220;10.122;2023-07-28T02:36:16;16.30;99.90
11944;DHT22;6031;50.220;10.122;2023-07-28T02:38:41;16.30;99.90
11944;DHT22;6031;50.220;10.122;2023-07-28T02:41:07;16.30;99.90
11944;DHT22;6031;50.220;10.122;2023-07-28T02:43:33;16.30;99.90
11944;DHT22;6031;50.220;10.122;2023-07-28T02:46:00;16.30;99.90
11944;DHT22;6031;50.220;10.122;2023-07-28T02:48:26;16.30;99.90
11944;DHT22;6031;50.220;10.122;2023-07-28T02:50:52;16.30;99.90
11944;DHT22;6031;50.220;10.122;2023-07-28T02:53:18;16.30;99.90
11944;DHT22;6031;50.220;10.122;2023-07-28T02:55:45;16.20;99.90
11944;DHT22;6031;50.220;10.122;2023-07-28T02:58:11;16.30;99.90
11944;DHT22;6031;50.220;10.122;2023-07-28T03:00:41;16.30;99.90
11944;DHT22;6031;50.220;10.122;2023-07-28T03:03:08;16.30;99.90
11944;DHT22;6031;50.220;10.122;2023-07-28T03:05:36;16.30;99.90
11944;DHT22;6031;50.220;10.122;2023-07-28T03:08:01;16.30;99.90
11944;DHT22;6031;50.220;10.122;2023-07-28T03:10:27;16.30;99.90
11944;DHT22;6031;50.220;10.122;2023-07-28T03:12:52;16.40;99.90
11944;DHT22;6031;50.220;10.122;2023-07-28T03:15:18;16.30;99.90
11944;DHT22;6031;50.220;10.122;2023-07-28T03:17:43;16.40;99.90
11944;DHT22;6031;50.220;10.122;2023-07-28T03:20:09;16.40;99.90
11944;DHT22;6031;50.220;10.122;2023-07-28T03:22:35;16.40;99.90
11944;DHT22;6031;50.220;10.122;2023-07-28T03:25:00;16.40;99.90
11944;DHT22;6031;50.220;10.122;2023-07-28T03:27:26;16.40;99.90
11944;DHT22;6031;50.220;10.122;2023-07-28T03:29:51;16.40;99.90
11944;DHT22;6031;50.220;10.122;2023-07-28T03:32:17;16.40;99.90
11944;DHT22;6031;50.220;10.122;2023-07-28T03:34:42;16.50;99.90
11944;DHT22;6031;50.220;10.122;2023-07-28T03:37:08;16.40;99.90
11944;DHT22;6031;50.220;10.122;2023-07-28T03:39:34;16.50;99.90
11944;DHT22;6031;50.220;10.122;2023-07-28T03:41:59;16.50;99.90
11944;DHT22;6031;50.220;10.122;2023-07-28T03:44:25;16.60;99.90
11944;DHT22;6031;50.220;10.122;2023-07-28T03:46:51;16.50;99.90
11944;DHT22;6031;50.220;10.122;2023-07-28T03:49:16;16.50;99.90
11944;DHT22;6031;50.220;10.122;2023-07-28T03:51:42;16.60;99.90
11944;DHT22;6031;50.220;10.122;2023-07-28T03:54:07;16.50;99.90
11944;DHT22;6031;50.220;10.122;2023-07-28T03:56:33;16.50;99.90
11944;DHT22;6031;50.220;10.122;2023-07-28T03:58:59;16.60;99.90
11944;DHT22;6031;50.220;10.122;2023-07-28T04:01:24;16.60;99.90
11944;DHT22;6031;50.220;10.122;2023-07-28T04:03:50;16.60;99.90
11944;DHT22;6031;50.220;10.122;2023-07-28T04:06:15;16.60;99.90
11944;DHT22;6031;50.220;10.122;2023-07-28T04:08:41;16.60;99.90
11944;DHT22;6031;50.220;10.122;2023-07-28T04:11:07;16.60;99.90
11944;DHT22;6031;50.220;10.122;2023-07-28T04:13:33;16.60;99.90
11944;DHT22;6031;50.220;10.122;2023-07-28T04:15:59;16.70;99.90
11944;DHT22;6031;50.220;10.122;2023-07-28T04:18:25;16.70;99.90
11944;DHT22;6031;50.220;10.122;2023-07-28T04:20:50;16.60;99.90
11944;DHT22;6031;50.220;10.122;2023-07-28T04:23:16;16.70;99.90
11944;DHT22;6031;50.220;10.122;2023-07-28T04:25:41;16.70;99.90
11944;DHT22;6031;50.220;10.122;2023-07-28T04:28:07;16.70;99.90
11944;DHT22;6031;50.220;10.122;2023-07-28T04:30:32;16.70;99.90
11944;DHT22;6031;50.220;10.122;2023-07-28T04:32:58;16.70;99.90
11944;DHT22;6031;50.220;10.122;2023-07-28T04:35:23;16.80;99.90
11944;DHT22;6031;50.220;10.122;2023-07-28T04:37:49;16.80;99.90
11944;DHT22;6031;50.220;10.122;2023-07-28T04:40:15;16.80;99.90
11944;DHT22;6031;50.220;10.122;2023-07-28T04:42:40;16.80;99.90
11944;DHT22;6031;50.220;10.122;2023-07-28T04:45:06;16.80;99.90
11944;DHT22;6031;50.220;10.122;2023-07-28T04:47:32;16.80;99.90
11944;DHT22;6031;50.220;10.122;2023-07-28T04:49:57;16.80;99.90
11944;DHT22;6031;50.220;10.122;2023-07-28T04:52:23;16.80;99.90
11944;DHT22;6031;50.220;10.122;2023-07-28T04:54:49;16.80;99.90
11944;DHT22;6031;50.220;10.122;2023-07-28T04:57:14;16.90;99.90
11944;DHT22;6031;50.220;10.122;2023-07-28T04:59:40;16.80;99.90
11944;DHT22;6031;50.220;10.122;2023-07-28T05:02:06;16.80;99.90
11944;DHT22;6031;50.220;10.122;2023-07-28T05:04:31;16.80;99.90
11944;DHT22;6031;50.220;10.122;2023-07-28T05:06:57;16.80;99.90
11944;DHT22;6031;50.220;10.122;2023-07-28T05:09:23;16.80;99.90
11944;DHT22;6031;50.220;10.122;2023-07-28T05:11:48;16.90;99.90
11944;DHT22;6031;50.220;10.122;2023-07-28T05:14:13;16.90;99.90
11944;DHT22;6031;50.220;10.122;2023-07-28T05:16:39;17.00;99.90
11944;DHT22;6031;50.220;10.122;2023-07-28T05:19:07;17.00;99.90
11944;DHT22;6031;50.220;10.122;2023-07-28T05:21:33;17.00;99.90
11944;DHT22;6031;50.220;10.122;2023-07-28T05:23:58;17.20;99.90
11944;DHT22;6031;50.220;10.122;2023-07-28T05:26:24;17.30;99.90
11944;DHT22;6031;50.220;10.122;2023-07-28T05:28:50;17.30;99.90
11944;DHT22;6031;50.220;10.122;2023-07-28T05:31:16;17.50;99.90
11944;DHT22;6031;50.220;10.122;2023-07-28T05:33:41;17.60;99.90
11944;DHT22;6031;50.220;10.122;2023-07-28T05:36:07;17.80;99.90
11944;DHT22;6031;50.220;10.122;2023-07-28T05:38:33;17.80;99.90
11944;DHT22;6031;50.220;10.122;2023-07-28T05:41:02;18.00;99.90
11944;DHT22;6031;50.220;10.122;2023-07-28T05:43:29;18.20;99.90
11944;DHT22;6031;50.220;10.122;2023-07-28T05:45:56;18.30;99.90
11944;DHT22;6031;50.220;10.122;2023-07-28T05:48:21;18.40;99.90
11944;DHT22;6031;50.220;10.122;2023-07-28T05:50:47;18.40;99.90
11944;DHT22;6031;50.220;10.122;2023-07-28T05:53:13;18.30;99.90
11944;DHT22;6031;50.220;10.122;2023-07-28T05:55:39;18.20;99.90
11944;DHT22;6031;50.220;10.122;2023-07-28T05:58:05;18.20;99.90
11944;DHT22;6031;50.220;10.122;2023-07-28T06:00:30;18.10;99.90
11944;DHT22;6031;50.220;10.122;2023-07-28T06:02:57;18.10;99.90
11944;DHT22;6031;50.220;10.122;2023-07-28T06:05:22;18.20;99.90
11944;DHT22;6031;50.220;10.122;2023-07-28T06:07:48;18.20;99.90
11944;DHT22;6031;50.220;10.122;2023-07-28T06:10:13;18.10;99.90
11944;DHT22;6031;50.220;10.122;2023-07-28T06:12:39;18.10;99.90
11944;DHT22;6031;50.220;10.122;2023-07-28T06:15:06;18.10;99.90
11944;DHT22;6031;50.220;10.122;2023-07-28T06:17:31;18.10;99.90
11944;DHT22;6031;50.220;10.122;2023-07-28T06:19:57;18.20;99.90
11944;DHT22;6031;50.220;10.122;2023-07-28T06:22:23;18.20;99.90
11944;DHT22;6031;50.220;10.122;2023-07-28T06:24:48;18.20;99.90
11944;DHT22;6031;50.220;10.122;2023-07-28T06:27:14;18.50;99.90
11944;DHT22;6031;50.220;10.122;2023-07-28T06:29:39;18.70;99.90
11944;DHT22;6031;50.220;10.122;2023-07-28T06:32:05;18.80;99.90
11944;DHT22;6031;50.220;10.122;2023-07-28T06:34:31;19.00;99.90
11944;DHT22;6031;50.220;10.122;2023-07-28T06:36:56;19.00;99.90
11944;DHT22;6031;50.220;10.122;2023-07-28T06:39:23;19.10;99.90
11944;DHT22;6031;50.220;10.122;2023-07-28T06:41:49;19.00;99.90
11944;DHT22;6031;50.220;10.122;2023-07-28T06:44:15;18.90;99.90
11944;DHT22;6031;50.220;10.122;2023-07-28T06:46:41;18.90;99.90
11944;DHT22;6031;50.220;10.122;2023-07-28T06:49:06;18.90;99.90
11944;DHT22;6031;50.220;10.122;2023-07-28T06:51:32;19.00;99.90
11944;DHT22;6031;50.220;10.122;2023-07-28T06:53:57;19.00;99.90
11944;DHT22;6031;50.220;10.122;2023-07-28T06:56:23;19.00;99.90
11944;DHT22;6031;50.220;10.122;2023-07-28T06:58:48;19.00;99.90
11944;DHT22;6031;50.220;10.122;2023-07-28T07:01:14;19.10;99.90
11944;DHT22;6031;50.220;10.122;2023-07-28T07:03:40;19.40;99.90
11944;DHT22;6031;50.220;10.122;2023-07-28T07:06:06;19.70;99.90
11944;DHT22;6031;50.220;10.122;2023-07-28T07:08:32;20.20;99.90
11944;DHT22;6031;50.220;10.122;2023-07-28T07:10:58;20.60;1.00
11944;DHT22;6031;50.220;10.122;2023-07-28T07:13:23;20.60;1.00
11944;DHT22;6031;50.220;10.122;2023-07-28T07:15:49;20.50;99.90
11944;DHT22;6031;50.220;10.122;2023-07-28T07:18:14;20.30;99.90
11944;DHT22;6031;50.220;10.122;2023-07-28T07:20:40;20.40;99.90
11944;DHT22;6031;50.220;10.122;2023-07-28T07:23:06;20.60;1.00
11944;DHT22;6031;50.220;10.122;2023-07-28T07:25:32;20.60;99.90
11944;DHT22;6031;50.220;10.122;2023-07-28T07:27:58;20.80;1.00
11944;DHT22;6031;50.220;10.122;2023-07-28T07:30:23;21.30;99.90
11944;DHT22;6031;50.220;10.122;2023-07-28T07:32:49;21.60;1.00
11944;DHT22;6031;50.220;10.122;2023-07-28T07:35:15;21.60;1.00
11944;DHT22;6031;50.220;10.122;2023-07-28T07:37:41;21.50;1.00
11944;DHT22;6031;50.220;10.122;2023-07-28T07:40:07;21.00;99.90
11944;DHT22;6031;50.220;10.122;2023-07-28T07:42:48;20.80;99.90
11944;DHT22;6031;50.220;10.122;2023-07-28T07:45:15;20.80;1.00
11944;DHT22;6031;50.220;10.122;2023-07-28T07:47:41;21.20;99.90
11944;DHT22;6031;50.220;10.122;2023-07-28T07:50:08;21.90;99.90
11944;DHT22;6031;50.220;10.122;2023-07-28T07:52:37;22.40;1.00
11944;DHT22;6031;50.220;10.122;2023-07-28T07:55:03;22.30;1.00
11944;DHT22;6031;50.220;10.122;2023-07-28T07:57:30;21.50;99.90
11944;DHT22;6031;50.220;10.122;2023-07-28T07:59:57;21.10;1.00
11944;DHT22;6031;50.220;10.122;2023-07-28T08:02:23;21.00;99.90
11944;DHT22;6031;50.220;10.122;2023-07-28T08:04:48;20.80;1.00
11944;DHT22;6031;50.220;10.122;2023-07-28T08:07:14;20.40;99.90
11944;DHT22;6031;50.220;10.122;2023-07-28T08:09:41;20.60;1.00
11944;DHT22;6031;50.220;10.122;2023-07-28T08:12:07;20.90;1.00
11944;DHT22;6031;50.220;10.122;2023-07-28T08:14:33;21.10;1.00
11944;DHT22;6031;50.220;10.122;2023-07-28T08:16:59;20.90;99.90
11944;DHT22;6031;50.220;10.122;2023-07-28T08:19:25;21.10;1.00
11944;DHT22;6031;50.220;10.122;2023-07-28T08:21:50;21.10;99.90
11944;DHT22;6031;50.220;10.122;2023-07-28T08:24:16;20.70;99.90
11944;DHT22;6031;50.220;10.122;2023-07-28T08:26:41;20.30;1.00
11944;DHT22;6031;50.220;10.122;2023-07-28T08:29:07;20.40;1.00
11944;DHT22;6031;50.220;10.122;2023-07-28T08:31:32;20.50;92.80
11944;DHT22;6031;50.220;10.122;2023-07-28T08:33:58;20.70;99.90
11944;DHT22;6031;50.220;10.122;2023-07-28T08:36:23;20.80;99.90
11944;DHT22;6031;50.220;10.122;2023-07-28T08:38:49;20.90;1.00
11944;DHT22;6031;50.220;10.122;2023-07-28T08:41:15;20.90;1.00
11944;DHT22;6031;50.220;10.122;2023-07-28T08:43:40;20.90;1.00
11944;DHT22;6031;50.220;10.122;2023-07-28T08:46:06;21.10;99.90
11944;DHT22;6031;50.220;10.122;2023-07-28T08:48:32;21.10;99.90
11944;DHT22;6031;50.220;10.122;2023-07-28T08:50:58;21.50;1.00
11944;DHT22;6031;50.220;10.122;2023-07-28T08:53:23;21.90;1.00
11944;DHT22;6031;50.220;10.122;2023-07-28T08:55:49;22.00;99.90
11944;DHT22;6031;50.220;10.122;2023-07-28T09:00:41;22.70;99.90
11944;DHT22;6031;50.220;10.122;2023-07-28T09:03:08;22.50;66.80
11944;DHT22;6031;50.220;10.122;2023-07-28T09:05:34;22.40;99.90
11944;DHT22;6031;50.220;10.122;2023-07-28T09:07:59;22.40;1.00
11944;DHT22;6031;50.220;10.122;2023-07-28T09:10:25;22.50;1.00
11944;DHT22;6031;50.220;10.122;2023-07-28T09:12:51;22.50;99.90
11944;DHT22;6031;50.220;10.122;2023-07-28T09:15:17;22.80;99.90
11944;DHT22;6031;50.220;10.122;2023-07-28T09:17:44;23.10;99.90
11944;DHT22;6031;50.220;10.122;2023-07-28T09:20:13;23.40;99.90
11944;DHT22;6031;50.220;10.122;2023-07-28T09:22:39;23.80;99.90
11944;DHT22;6031;50.220;10.122;2023-07-28T09:25:15;24.00;1.00
11944;DHT22;6031;50.220;10.122;2023-07-28T09:27:41;24.00;1.00
11944;DHT22;6031;50.220;10.122;2023-07-28T09:30:07;24.10;1.00
11944;DHT22;6031;50.220;10.122;2023-07-28T09:32:33;24.10;99.90
11944;DHT22;6031;50.220;10.122;2023-07-28T09:35:11;24.40;99.90
11944;DHT22;6031;50.220;10.122;2023-07-28T09:37:40;24.30;99.90
11944;DHT22;6031;50.220;10.122;2023-07-28T09:40:13;24.40;99.90
11944;DHT22;6031;50.220;10.122;2023-07-28T09:42:40;24.20;1.00
11944;DHT22;6031;50.220;10.122;2023-07-28T09:45:07;24.10;98.60
11944;DHT22;6031;50.220;10.122;2023-07-28T09:47:34;24.30;99.90
11944;DHT22;6031;50.220;10.122;2023-07-28T09:50:02;24.20;99.90
11944;DHT22;6031;50.220;10.122;2023-07-28T09:52:34;24.40;99.90
11944;DHT22;6031;50.220;10.122;2023-07-28T09:55:06;24.30;99.90
11944;DHT22;6031;50.220;10.122;2023-07-28T09:57:41;24.30;99.90
11944;DHT22;6031;50.220;10.122;2023-07-28T10:00:11;24.60;99.90
11944;DHT22;6031;50.220;10.122;2023-07-28T10:02:37;25.30;1.00
11944;DHT22;6031;50.220;10.122;2023-07-28T10:05:05;26.10;99.90
11944;DHT22;6031;50.220;10.122;2023-07-28T10:07:33;26.30;99.90
11944;DHT22;6031;50.220;10.122;2023-07-28T10:09:59;25.20;1.00
11944;DHT22;6031;50.220;10.122;2023-07-28T10:12:26;25.00;1.00
11944;DHT22;6031;50.220;10.122;2023-07-28T10:15:03;24.60;1.00
11944;DHT22;6031;50.220;10.122;2023-07-28T10:17:35;24.20;25.10
11944;DHT22;6031;50.220;10.122;2023-07-28T10:23:04;24.10;99.90
11944;DHT22;6031;50.220;10.122;2023-07-28T10:25:36;24.10;83.80
11944;DHT22;6031;50.220;10.122;2023-07-28T10:28:02;24.40;29.30
11944;DHT22;6031;50.220;10.122;2023-07-28T10:30:28;24.70;99.90
11944;DHT22;6031;50.220;10.122;2023-07-28T10:32:54;25.60;1.00
11944;DHT22;6031;50.220;10.122;2023-07-28T10:35:26;26.70;99.90
11944;DHT22;6031;50.220;10.122;2023-07-28T10:37:54;27.00;22.40
11944;DHT22;6031;50.220;10.122;2023-07-28T10:42:54;29.30;1.00
11944;DHT22;6031;50.220;10.122;2023-07-28T10:45:22;29.60;1.00
11944;DHT22;6031;50.220;10.122;2023-07-28T10:47:48;29.10;1.00
11944;DHT22;6031;50.220;10.122;2023-07-28T10:50:14;28.50;1.00
11944;DHT22;6031;50.220;10.122;2023-07-28T10:52:41;27.10;1.00
11944;DHT22;6031;50.220;10.122;2023-07-28T10:57:43;24.60;1.00
11944;DHT22;6031;50.220;10.122;2023-07-28T11:00:22;24.10;99.90
11944;DHT22;6031;50.220;10.122;2023-07-28T11:02:49;23.10;1.00
11944;DHT22;6031;50.220;10.122;2023-07-28T11:05:21;22.10;99.90
11944;DHT22;6031;50.220;10.122;2023-07-28T11:07:48;21.60;99.90
11944;DHT22;6031;50.220;10.122;2023-07-28T11:10:14;21.40;99.90
11944;DHT22;6031;50.220;10.122;2023-07-28T11:12:45;21.50;48.70
11944;DHT22;6031;50.220;10.122;2023-07-28T11:15:13;22.00;1.00
11944;DHT22;6031;50.220;10.122;2023-07-28T11:17:44;22.70;1.00
11944;DHT22;6031;50.220;10.122;2023-07-28T11:20:20;23.80;1.00
11944;DHT22;6031;50.220;10.122;2023-07-28T11:22:47;25.60;99.90
11944;DHT22;6031;50.220;10.122;2023-07-28T11:25:17;27.30;99.90
11944;DHT22;6031;50.220;10.122;2023-07-28T11:27:43;27.30;1.00
11944;DHT22;6031;50.220;10.122;2023-07-28T11:30:09;27.50;1.00
11944;DHT22;6031;50.220;10.122;2023-07-28T11:32:36;27.00;1.00
11944;DHT22;6031;50.220;10.122;2023-07-28T11:35:06;26.60;1.00
11944;DHT22;6031;50.220;10.122;2023-07-28T11:37:36;26.00;1.00
11944;DHT22;6031;50.220;10.122;2023-07-28T11:40:03;26.20;1.00
11944;DHT22;6031;50.220;10.122;2023-07-28T11:42:33;27.40;1.00
11944;DHT22;6031;50.220;10.122;2023-07-28T11:45:00;28.70;1.00
11944;DHT22;6031;50.220;10.122;2023-07-28T11:47:26;28.00;1.00
11944;DHT22;6031;50.220;10.122;2023-07-28T11:49:51;26.70;78.30
11944;DHT22;6031;50.220;10.122;2023-07-28T11:52:17;26.10;99.90
11944;DHT22;6031;50.220;10.122;2023-07-28T11:54:44;26.40;99.90
11944;DHT22;6031;50.220;10.122;2023-07-28T11:57:10;26.10;99.90
11944;DHT22;6031;50.220;10.122;2023-07-28T11:59:35;26.00;99.90
11944;DHT22;6031;50.220;10.122;2023-07-28T12:02:03;26.00;99.90
11944;DHT22;6031;50.220;10.122;2023-07-28T12:04:36;25.60;99.90
11944;DHT22;6031;50.220;10.122;2023-07-28T12:07:07;25.80;99.90
11944;DHT22;6031;50.220;10.122;2023-07-28T12:12:12;26.00;99.90
11944;DHT22;6031;50.220;10.122;2023-07-28T12:14:38;26.50;99.90
11944;DHT22;6031;50.220;10.122;2023-07-28T12:17:12;26.80;16.60
11944;DHT22;6031;50.220;10.122;2023-07-28T12:19:42;26.30;99.90
11944;DHT22;6031;50.220;10.122;2023-07-28T12:22:07;26.00;99.90
11944;DHT22;6031;50.220;10.122;2023-07-28T12:24:33;25.70;99.90
11944;DHT22;6031;50.220;10.122;2023-07-28T12:26:59;25.30;99.90
11944;DHT22;6031;50.220;10.122;2023-07-28T12:29:24;25.20;1.00
11944;DHT22;6031;50.220;10.122;2023-07-28T12:31:50;25.40;1.00
11944;DHT22;6031;50.220;10.122;2023-07-28T12:34:15;26.00;99.90
11944;DHT22;6031;50.220;10.122;2023-07-28T12:36:41;26.80;99.90
11944;DHT22;6031;50.220;10.122;2023-07-28T12:39:06;28.40;1.00
11944;DHT22;6031;50.220;10.122;2023-07-28T12:41:33;29.30;1.00
11944;DHT22;6031;50.220;10.122;2023-07-28T12:43:58;29.10;1.00
11944;DHT22;6031;50.220;10.122;2023-07-28T12:46:24;28.60;1.00
11944;DHT22;6031;50.220;10.122;2023-07-28T12:48:49;28.10;1.00
11944;DHT22;6031;50.220;10.122;2023-07-28T12:51:15;28.70;1.00
11944;DHT22;6031;50.220;10.122;2023-07-28T12:53:40;29.60;1.00
11944;DHT22;6031;50.220;10.122;2023-07-28T12:56:05;29.20;1.00
11944;DHT22;6031;50.220;10.122;2023-07-28T12:58:31;28.50;1.00
11944;DHT22;6031;50.220;10.122;2023-07-28T13:00:58;28.40;1.00
11944;DHT22;6031;50.220;10.122;2023-07-28T13:03:26;28.30;1.00
11944;DHT22;6031;50.220;10.122;2023-07-28T13:05:52;27.50;1.00
11944;DHT22;6031;50.220;10.122;2023-07-28T13:08:18;27.20;1.00
11944;DHT22;6031;50.220;10.122;2023-07-28T13:10:43;26.80;1.00
11944;DHT22;6031;50.220;10.122;2023-07-28T13:13:09;26.60;1.00
11944;DHT22;6031;50.220;10.122;2023-07-28T13:15:34;25.70;99.90
11944;DHT22;6031;50.220;10.122;2023-07-28T13:18:00;25.30;99.90
11944;DHT22;6031;50.220;10.122;2023-07-28T13:20:26;24.60;1.00
11944;DHT22;6031;50.220;10.122;2023-07-28T13:22:51;24.10;1.00
11944;DHT22;6031;50.220;10.122;2023-07-28T13:25:17;24.40;1.00
11944;DHT22;6031;50.220;10.122;2023-07-28T13:27:43;24.80;1.00
11944;DHT22;6031;50.220;10.122;2023-07-28T13:30:08;25.40;1.00
11944;DHT22;6031;50.220;10.122;2023-07-28T13:32:34;25.50;99.90
11944;DHT22;6031;50.220;10.122;2023-07-28T13:34:59;25.40;99.90
11944;DHT22;6031;50.220;10.122;2023-07-28T13:37:25;25.30;1.00
11944;DHT22;6031;50.220;10.122;2023-07-28T13:39:50;25.50;99.90
11944;DHT22;6031;50.220;10.122;2023-07-28T13:42:17;26.30;99.90
11944;DHT22;6031;50.220;10.122;2023-07-28T13:44:43;26.80;1.00
11944;DHT22;6031;50.220;10.122;2023-07-28T13:47:08;26.80;25.50
11944;DHT22;6031;50.220;10.122;2023-07-28T13:49:34;26.70;47.30
11944;DHT22;6031;50.220;10.122;2023-07-28T13:52:03;25.80;99.90
11944;DHT22;6031;50.220;10.122;2023-07-28T13:54:29;25.60;99.90
11944;DHT22;6031;50.220;10.122;2023-07-28T13:56:54;25.60;99.90
11944;DHT22;6031;50.220;10.122;2023-07-28T13:59:20;26.00;99.90
11944;DHT22;6031;50.220;10.122;2023-07-28T14:01:46;26.30;99.90
11944;DHT22;6031;50.220;10.122;2023-07-28T14:04:11;26.30;99.90
11944;DHT22;6031;50.220;10.122;2023-07-28T14:06:37;25.90;99.90
11944;DHT22;6031;50.220;10.122;2023-07-28T14:09:02;25.80;99.90
11944;DHT22;6031;50.220;10.122;2023-07-28T14:11:28;26.20;99.90
11944;DHT22;6031;50.220;10.122;2023-07-28T14:13:53;26.70;1.00
11944;DHT22;6031;50.220;10.122;2023-07-28T14:16:19;26.40;1.00
11944;DHT22;6031;50.220;10.122;2023-07-28T14:18:44;26.40;1.00
11944;DHT22;6031;50.220;10.122;2023-07-28T14:21:13;25.70;99.90
11944;DHT22;6031;50.220;10.122;2023-07-28T14:23:38;25.70;99.90
11944;DHT22;6031;50.220;10.122;2023-07-28T14:26:04;26.20;78.00
11944;DHT22;6031;50.220;10.122;2023-07-28T14:28:30;26.40;77.30
11944;DHT22;6031;50.220;10.122;2023-07-28T14:30:55;26.70;19.40
11944;DHT22;6031;50.220;10.122;2023-07-28T14:33:21;26.60;1.00
11944;DHT22;6031;50.220;10.122;2023-07-28T14:35:48;26.50;1.00
11944;DHT22;6031;50.220;10.122;2023-07-28T14:38:13;26.30;4.30
11944;DHT22;6031;50.220;10.122;2023-07-28T14:40:39;26.60;1.00
11944;DHT22;6031;50.220;10.122;2023-07-28T14:43:05;26.10;1.00
11944;DHT22;6031;50.220;10.122;2023-07-28T14:45:31;25.80;10.80
11944;DHT22;6031;50.220;10.122;2023-07-28T14:47:57;25.40;99.90
11944;DHT22;6031;50.220;10.122;2023-07-28T14:50:22;25.10;99.90
11944;DHT22;6031;50.220;10.122;2023-07-28T14:52:48;25.30;99.90
11944;DHT22;6031;50.220;10.122;2023-07-28T14:55:14;25.80;99.90
11944;DHT22;6031;50.220;10.122;2023-07-28T14:57:39;26.10;99.90
11944;DHT22;6031;50.220;10.122;2023-07-28T15:00:05;26.20;1.00
11944;DHT22;6031;50.220;10.122;2023-07-28T15:02:33;26.30;17.80
11944;DHT22;6031;50.220;10.122;2023-07-28T15:04:58;26.70;1.00
11944;DHT22;6031;50.220;10.122;2023-07-28T15:07:24;26.80;1.00
11944;DHT22;6031;50.220;10.122;2023-07-28T15:09:50;26.80;1.00
11944;DHT22;6031;50.220;10.122;2023-07-28T15:12:15;26.70;1.00
11944;DHT22;6031;50.220;10.122;2023-07-28T15:14:41;26.20;1.00
11944;DHT22;6031;50.220;10.122;2023-07-28T15:17:06;25.40;99.90
11944;DHT22;6031;50.220;10.122;2023-07-28T15:19:32;25.20;99.90
11944;DHT22;6031;50.220;10.122;2023-07-28T15:21:57;25.00;99.90
11944;DHT22;6031;50.220;10.122;2023-07-28T15:24:23;24.80;99.90
11944;DHT22;6031;50.220;10.122;2023-07-28T15:26:48;24.80;1.00
11944;DHT22;6031;50.220;10.122;2023-07-28T15:29:16;24.90;99.90
11944;DHT22;6031;50.220;10.122;2023-07-28T15:31:41;24.80;1.00
11944;DHT22;6031;50.220;10.122;2023-07-28T15:34:07;25.10;1.00
11944;DHT22;6031;50.220;10.122;2023-07-28T15:36:33;24.90;1.00
11944;DHT22;6031;50.220;10.122;2023-07-28T15:38:58;25.10;1.00
11944;DHT22;6031;50.220;10.122;2023-07-28T15:41:24;25.40;99.90
11944;DHT22;6031;50.220;10.122;2023-07-28T15:43:50;25.60;99.90
11944;DHT22;6031;50.220;10.122;2023-07-28T15:46:15;25.40;99.90
11944;DHT22;6031;50.220;10.122;2023-07-28T15:48:41;25.20;99.90